Thornhill, Virginia
Current Conditions -  °F | °C
As of 1:55 PM on Saturday 25 Oct 2014 (Local Time) from KOMH Reporting Station
Clear Clear  
Wind Chill: 70°   Ceiling: Unl
Heat Index: 70°   Visibility: 10mi
Dew Point: 34°   Wind: 10mph
Humidity: 27%   Direction: 180°S
Pressure: 29.89"   Gusts: 18mph
Location:  38.216°N, 78.057°W
Report Text: KOMH 251755Z AUTO 18009G16KT 150V210 10SM CLR 21/01 A2989 RMK AO2
Loading
Personal Weather Stations






























Interactive Weather Map
Tropical Storm Tracking
New forecast layout! Learn more

10-Day Weather Forecast

Advertisements
Track Severe Weather on mobile